sensor_id;sensor_type;location;lat;lon;timestamp;P1;durP1;ratioP1;P2;durP2;ratioP2
77018;SDS011;66044;53.142;17.962;2023-05-16T00:01:36;7.50;;;4.60;;
77018;SDS011;66044;53.142;17.962;2023-05-16T00:04:03;6.70;;;3.40;;
77018;SDS011;66044;53.142;17.962;2023-05-16T00:06:30;8.20;;;4.10;;
77018;SDS011;66044;53.142;17.962;2023-05-16T00:08:57;7.10;;;3.80;;
77018;SDS011;66044;53.142;17.962;2023-05-16T00:11:23;6.50;;;3.70;;
77018;SDS011;66044;53.142;17.962;2023-05-16T00:13:50;7.40;;;3.50;;
77018;SDS011;66044;53.142;17.962;2023-05-16T00:16:16;6.10;;;3.00;;
77018;SDS011;66044;53.142;17.962;2023-05-16T00:18:43;7.80;;;3.90;;
77018;SDS011;66044;53.142;17.962;2023-05-16T00:21:10;6.90;;;3.50;;
77018;SDS011;66044;53.142;17.962;2023-05-16T00:23:37;7.10;;;3.80;;
77018;SDS011;66044;53.142;17.962;2023-05-16T00:26:03;8.40;;;3.80;;
77018;SDS011;66044;53.142;17.962;2023-05-16T00:28:30;6.60;;;3.10;;
77018;SDS011;66044;53.142;17.962;2023-05-16T00:30:56;7.40;;;3.90;;
77018;SDS011;66044;53.142;17.962;2023-05-16T00:33:23;7.30;;;3.50;;
77018;SDS011;66044;53.142;17.962;2023-05-16T00:35:49;6.80;;;3.40;;
77018;SDS011;66044;53.142;17.962;2023-05-16T00:38:16;7.20;;;3.40;;
77018;SDS011;66044;53.142;17.962;2023-05-16T00:40:43;6.80;;;3.10;;
77018;SDS011;66044;53.142;17.962;2023-05-16T00:43:09;6.60;;;3.20;;
77018;SDS011;66044;53.142;17.962;2023-05-16T00:45:36;6.80;;;3.60;;
77018;SDS011;66044;53.142;17.962;2023-05-16T00:48:02;6.30;;;3.00;;
77018;SDS011;66044;53.142;17.962;2023-05-16T00:50:29;7.30;;;3.90;;
77018;SDS011;66044;53.142;17.962;2023-05-16T00:52:55;6.90;;;3.50;;
77018;SDS011;66044;53.142;17.962;2023-05-16T00:55:22;6.40;;;3.40;;
77018;SDS011;66044;53.142;17.962;2023-05-16T00:57:49;7.50;;;3.10;;
77018;SDS011;66044;53.142;17.962;2023-05-16T01:00:15;6.60;;;3.50;;
77018;SDS011;66044;53.142;17.962;2023-05-16T01:02:42;7.20;;;2.80;;
77018;SDS011;66044;53.142;17.962;2023-05-16T01:05:09;7.10;;;3.50;;
77018;SDS011;66044;53.142;17.962;2023-05-16T01:07:36;6.30;;;2.80;;
77018;SDS011;66044;53.142;17.962;2023-05-16T01:10:03;6.40;;;3.20;;
77018;SDS011;66044;53.142;17.962;2023-05-16T01:15:46;6.80;;;3.20;;
77018;SDS011;66044;53.142;17.962;2023-05-16T01:18:28;8.00;;;3.10;;
77018;SDS011;66044;53.142;17.962;2023-05-16T01:21:03;5.90;;;2.70;;
77018;SDS011;66044;53.142;17.962;2023-05-16T01:23:51;6.20;;;3.20;;
77018;SDS011;66044;53.142;17.962;2023-05-16T01:26:28;7.30;;;3.10;;
77018;SDS011;66044;53.142;17.962;2023-05-16T01:28:57;6.30;;;3.50;;
77018;SDS011;66044;53.142;17.962;2023-05-16T01:31:24;6.40;;;3.30;;
77018;SDS011;66044;53.142;17.962;2023-05-16T01:33:50;5.70;;;2.70;;
77018;SDS011;66044;53.142;17.962;2023-05-16T01:36:24;6.60;;;3.20;;
77018;SDS011;66044;53.142;17.962;2023-05-16T01:38:57;6.10;;;3.00;;
77018;SDS011;66044;53.142;17.962;2023-05-16T01:44:10;6.20;;;3.00;;
77018;SDS011;66044;53.142;17.962;2023-05-16T01:46:42;7.00;;;3.30;;
77018;SDS011;66044;53.142;17.962;2023-05-16T01:49:16;6.00;;;3.00;;
77018;SDS011;66044;53.142;17.962;2023-05-16T01:51:49;5.60;;;2.40;;
77018;SDS011;66044;53.142;17.962;2023-05-16T01:54:19;5.60;;;2.60;;
77018;SDS011;66044;53.142;17.962;2023-05-16T01:56:51;7.00;;;3.50;;
77018;SDS011;66044;53.142;17.962;2023-05-16T01:59:19;5.70;;;2.70;;
77018;SDS011;66044;53.142;17.962;2023-05-16T02:01:47;5.70;;;2.80;;
77018;SDS011;66044;53.142;17.962;2023-05-16T02:04:13;5.50;;;2.50;;
77018;SDS011;66044;53.142;17.962;2023-05-16T02:06:41;5.70;;;2.80;;
77018;SDS011;66044;53.142;17.962;2023-05-16T02:09:07;5.50;;;2.70;;
77018;SDS011;66044;53.142;17.962;2023-05-16T02:11:34;5.70;;;2.60;;
77018;SDS011;66044;53.142;17.962;2023-05-16T02:14:00;6.00;;;2.60;;
77018;SDS011;66044;53.142;17.962;2023-05-16T02:16:28;6.40;;;2.80;;
77018;SDS011;66044;53.142;17.962;2023-05-16T02:18:56;6.10;;;2.40;;
77018;SDS011;66044;53.142;17.962;2023-05-16T02:21:22;5.30;;;2.00;;
77018;SDS011;66044;53.142;17.962;2023-05-16T02:23:49;6.30;;;2.70;;
77018;SDS011;66044;53.142;17.962;2023-05-16T02:26:15;5.30;;;1.90;;
77018;SDS011;66044;53.142;17.962;2023-05-16T02:28:41;6.20;;;2.10;;
77018;SDS011;66044;53.142;17.962;2023-05-16T02:31:08;5.20;;;2.00;;
77018;SDS011;66044;53.142;17.962;2023-05-16T02:33:34;4.90;;;2.00;;
77018;SDS011;66044;53.142;17.962;2023-05-16T02:36:01;4.70;;;1.70;;
77018;SDS011;66044;53.142;17.962;2023-05-16T02:38:27;4.60;;;1.60;;
77018;SDS011;66044;53.142;17.962;2023-05-16T02:40:54;5.60;;;2.00;;
77018;SDS011;66044;53.142;17.962;2023-05-16T02:43:20;4.50;;;1.50;;
77018;SDS011;66044;53.142;17.962;2023-05-16T02:45:46;5.40;;;1.50;;
77018;SDS011;66044;53.142;17.962;2023-05-16T02:48:13;4.20;;;1.50;;
77018;SDS011;66044;53.142;17.962;2023-05-16T02:50:39;4.30;;;1.40;;
77018;SDS011;66044;53.142;17.962;2023-05-16T02:53:06;4.60;;;1.30;;
77018;SDS011;66044;53.142;17.962;2023-05-16T02:55:32;4.70;;;1.40;;
77018;SDS011;66044;53.142;17.962;2023-05-16T02:57:59;4.00;;;1.30;;
77018;SDS011;66044;53.142;17.962;2023-05-16T03:00:25;6.20;;;1.30;;
77018;SDS011;66044;53.142;17.962;2023-05-16T03:02:52;4.10;;;1.10;;
77018;SDS011;66044;53.142;17.962;2023-05-16T03:05:18;3.90;;;1.30;;
77018;SDS011;66044;53.142;17.962;2023-05-16T03:07:45;3.60;;;1.20;;
77018;SDS011;66044;53.142;17.962;2023-05-16T03:10:11;3.20;;;1.00;;
77018;SDS011;66044;53.142;17.962;2023-05-16T03:12:38;3.40;;;1.10;;
77018;SDS011;66044;53.142;17.962;2023-05-16T03:15:04;3.10;;;1.10;;
77018;SDS011;66044;53.142;17.962;2023-05-16T03:17:33;2.60;;;0.80;;
77018;SDS011;66044;53.142;17.962;2023-05-16T03:20:00;3.70;;;1.20;;
77018;SDS011;66044;53.142;17.962;2023-05-16T03:22:26;3.90;;;1.10;;
77018;SDS011;66044;53.142;17.962;2023-05-16T03:24:53;4.20;;;1.10;;
77018;SDS011;66044;53.142;17.962;2023-05-16T03:27:21;5.00;;;1.40;;
77018;SDS011;66044;53.142;17.962;2023-05-16T03:29:48;3.80;;;1.30;;
77018;SDS011;66044;53.142;17.962;2023-05-16T03:32:14;3.20;;;1.00;;
77018;SDS011;66044;53.142;17.962;2023-05-16T03:34:41;3.90;;;1.30;;
77018;SDS011;66044;53.142;17.962;2023-05-16T03:37:07;3.30;;;1.00;;
77018;SDS011;66044;53.142;17.962;2023-05-16T03:39:36;3.60;;;1.00;;
77018;SDS011;66044;53.142;17.962;2023-05-16T03:42:02;3.00;;;1.10;;
77018;SDS011;66044;53.142;17.962;2023-05-16T03:44:29;4.50;;;1.40;;
77018;SDS011;66044;53.142;17.962;2023-05-16T03:46:56;3.90;;;1.20;;
77018;SDS011;66044;53.142;17.962;2023-05-16T03:49:23;3.80;;;1.10;;
77018;SDS011;66044;53.142;17.962;2023-05-16T03:51:53;3.60;;;1.00;;
77018;SDS011;66044;53.142;17.962;2023-05-16T03:54:19;5.20;;;1.30;;
77018;SDS011;66044;53.142;17.962;2023-05-16T03:56:45;3.50;;;1.10;;
77018;SDS011;66044;53.142;17.962;2023-05-16T03:59:12;2.90;;;0.90;;
77018;SDS011;66044;53.142;17.962;2023-05-16T04:01:38;3.50;;;1.20;;
77018;SDS011;66044;53.142;17.962;2023-05-16T04:04:05;4.00;;;1.30;;
77018;SDS011;66044;53.142;17.962;2023-05-16T04:06:32;4.00;;;1.30;;
77018;SDS011;66044;53.142;17.962;2023-05-16T04:08:59;3.20;;;1.20;;
77018;SDS011;66044;53.142;17.962;2023-05-16T04:11:25;3.50;;;1.10;;
77018;SDS011;66044;53.142;17.962;2023-05-16T04:13:52;3.70;;;1.10;;
77018;SDS011;66044;53.142;17.962;2023-05-16T04:16:19;3.40;;;1.00;;
77018;SDS011;66044;53.142;17.962;2023-05-16T04:18:45;4.70;;;1.30;;
77018;SDS011;66044;53.142;17.962;2023-05-16T04:21:12;3.30;;;1.00;;
77018;SDS011;66044;53.142;17.962;2023-05-16T04:23:40;3.70;;;0.80;;
77018;SDS011;66044;53.142;17.962;2023-05-16T04:26:07;3.20;;;1.00;;
77018;SDS011;66044;53.142;17.962;2023-05-16T04:28:33;5.00;;;1.30;;
77018;SDS011;66044;53.142;17.962;2023-05-16T04:31:01;3.90;;;1.20;;
77018;SDS011;66044;53.142;17.962;2023-05-16T04:33:28;4.30;;;1.00;;
77018;SDS011;66044;53.142;17.962;2023-05-16T04:35:54;3.80;;;1.20;;
77018;SDS011;66044;53.142;17.962;2023-05-16T04:38:23;4.10;;;1.20;;
77018;SDS011;66044;53.142;17.962;2023-05-16T04:40:49;3.30;;;1.10;;
77018;SDS011;66044;53.142;17.962;2023-05-16T04:43:16;3.40;;;1.00;;
77018;SDS011;66044;53.142;17.962;2023-05-16T04:45:43;4.60;;;1.30;;
77018;SDS011;66044;53.142;17.962;2023-05-16T04:48:10;2.90;;;0.90;;
77018;SDS011;66044;53.142;17.962;2023-05-16T04:50:37;4.30;;;1.20;;
77018;SDS011;66044;53.142;17.962;2023-05-16T04:53:03;3.70;;;1.00;;
77018;SDS011;66044;53.142;17.962;2023-05-16T04:55:30;2.80;;;0.90;;
77018;SDS011;66044;53.142;17.962;2023-05-16T04:57:56;4.40;;;1.30;;
77018;SDS011;66044;53.142;17.962;2023-05-16T05:00:23;3.70;;;1.20;;
77018;SDS011;66044;53.142;17.962;2023-05-16T05:02:50;3.50;;;1.00;;
77018;SDS011;66044;53.142;17.962;2023-05-16T05:05:16;3.30;;;1.10;;
77018;SDS011;66044;53.142;17.962;2023-05-16T05:07:42;4.80;;;1.30;;
77018;SDS011;66044;53.142;17.962;2023-05-16T05:10:09;5.30;;;1.50;;
77018;SDS011;66044;53.142;17.962;2023-05-16T05:12:36;4.60;;;1.50;;
77018;SDS011;66044;53.142;17.962;2023-05-16T05:15:03;5.20;;;1.50;;
77018;SDS011;66044;53.142;17.962;2023-05-16T05:17:31;3.90;;;1.80;;
77018;SDS011;66044;53.142;17.962;2023-05-16T05:19:57;7.60;;;1.60;;
77018;SDS011;66044;53.142;17.962;2023-05-16T05:22:24;5.50;;;1.70;;
77018;SDS011;66044;53.142;17.962;2023-05-16T05:24:50;5.30;;;1.90;;
77018;SDS011;66044;53.142;17.962;2023-05-16T05:27:17;6.20;;;1.60;;
77018;SDS011;66044;53.142;17.962;2023-05-16T05:29:43;6.40;;;2.00;;
77018;SDS011;66044;53.142;17.962;2023-05-16T05:32:09;5.00;;;1.60;;
77018;SDS011;66044;53.142;17.962;2023-05-16T05:34:36;5.10;;;1.90;;
77018;SDS011;66044;53.142;17.962;2023-05-16T05:37:02;6.70;;;2.00;;
77018;SDS011;66044;53.142;17.962;2023-05-16T05:39:29;6.10;;;1.70;;
77018;SDS011;66044;53.142;17.962;2023-05-16T05:41:55;5.60;;;1.70;;
77018;SDS011;66044;53.142;17.962;2023-05-16T05:44:22;7.20;;;1.60;;
77018;SDS011;66044;53.142;17.962;2023-05-16T05:46:48;5.20;;;1.70;;
77018;SDS011;66044;53.142;17.962;2023-05-16T05:49:15;4.90;;;1.70;;
77018;SDS011;66044;53.142;17.962;2023-05-16T05:51:42;4.80;;;1.70;;
77018;SDS011;66044;53.142;17.962;2023-05-16T05:54:08;4.30;;;1.40;;
77018;SDS011;66044;53.142;17.962;2023-05-16T05:56:35;5.20;;;1.60;;
77018;SDS011;66044;53.142;17.962;2023-05-16T05:59:01;4.90;;;1.60;;
77018;SDS011;66044;53.142;17.962;2023-05-16T06:01:28;4.60;;;1.70;;
77018;SDS011;66044;53.142;17.962;2023-05-16T06:03:55;4.60;;;1.60;;
77018;SDS011;66044;53.142;17.962;2023-05-16T06:06:22;7.20;;;2.50;;
77018;SDS011;66044;53.142;17.962;2023-05-16T06:08:48;6.40;;;2.00;;
77018;SDS011;66044;53.142;17.962;2023-05-16T06:11:15;7.10;;;1.60;;
77018;SDS011;66044;53.142;17.962;2023-05-16T06:13:41;6.20;;;2.20;;
77018;SDS011;66044;53.142;17.962;2023-05-16T06:16:07;5.80;;;1.90;;
77018;SDS011;66044;53.142;17.962;2023-05-16T06:18:34;4.80;;;1.70;;
77018;SDS011;66044;53.142;17.962;2023-05-16T06:21:00;6.50;;;2.00;;
77018;SDS011;66044;53.142;17.962;2023-05-16T06:23:27;8.90;;;2.10;;
77018;SDS011;66044;53.142;17.962;2023-05-16T06:25:53;5.70;;;1.90;;
77018;SDS011;66044;53.142;17.962;2023-05-16T06:28:20;5.70;;;2.20;;
77018;SDS011;66044;53.142;17.962;2023-05-16T06:30:46;5.50;;;1.90;;
77018;SDS011;66044;53.142;17.962;2023-05-16T06:33:13;6.40;;;1.80;;
77018;SDS011;66044;53.142;17.962;2023-05-16T06:35:40;5.70;;;2.00;;
77018;SDS011;66044;53.142;17.962;2023-05-16T06:38:07;5.00;;;1.90;;
77018;SDS011;66044;53.142;17.962;2023-05-16T06:40:33;5.90;;;2.20;;
77018;SDS011;66044;53.142;17.962;2023-05-16T06:43:00;5.10;;;1.90;;
77018;SDS011;66044;53.142;17.962;2023-05-16T06:45:26;6.40;;;2.00;;
77018;SDS011;66044;53.142;17.962;2023-05-16T06:47:52;5.50;;;1.90;;
77018;SDS011;66044;53.142;17.962;2023-05-16T06:50:20;5.90;;;1.90;;
77018;SDS011;66044;53.142;17.962;2023-05-16T06:52:46;5.40;;;1.90;;
77018;SDS011;66044;53.142;17.962;2023-05-16T06:55:13;6.10;;;2.10;;
77018;SDS011;66044;53.142;17.962;2023-05-16T06:57:39;5.30;;;2.00;;
77018;SDS011;66044;53.142;17.962;2023-05-16T07:00:06;5.00;;;2.00;;
77018;SDS011;66044;53.142;17.962;2023-05-16T07:02:33;4.90;;;1.80;;
77018;SDS011;66044;53.142;17.962;2023-05-16T07:05:00;6.10;;;2.00;;
77018;SDS011;66044;53.142;17.962;2023-05-16T07:07:26;6.10;;;2.10;;
77018;SDS011;66044;53.142;17.962;2023-05-16T07:09:53;5.20;;;2.10;;
77018;SDS011;66044;53.142;17.962;2023-05-16T07:12:19;4.80;;;1.90;;
77018;SDS011;66044;53.142;17.962;2023-05-16T07:14:46;4.90;;;2.00;;
77018;SDS011;66044;53.142;17.962;2023-05-16T07:17:12;6.10;;;2.50;;
77018;SDS011;66044;53.142;17.962;2023-05-16T07:19:39;5.70;;;2.40;;
77018;SDS011;66044;53.142;17.962;2023-05-16T07:22:05;5.40;;;2.30;;
77018;SDS011;66044;53.142;17.962;2023-05-16T07:24:32;5.40;;;2.10;;
77018;SDS011;66044;53.142;17.962;2023-05-16T07:26:58;6.90;;;2.10;;
77018;SDS011;66044;53.142;17.962;2023-05-16T07:29:25;6.00;;;2.40;;
77018;SDS011;66044;53.142;17.962;2023-05-16T07:31:51;8.20;;;2.80;;
77018;SDS011;66044;53.142;17.962;2023-05-16T07:34:18;5.60;;;2.30;;
77018;SDS011;66044;53.142;17.962;2023-05-16T07:36:44;7.40;;;2.10;;
77018;SDS011;66044;53.142;17.962;2023-05-16T07:39:11;5.80;;;2.00;;
77018;SDS011;66044;53.142;17.962;2023-05-16T07:41:37;5.90;;;2.40;;
77018;SDS011;66044;53.142;17.962;2023-05-16T07:44:03;6.20;;;2.00;;
77018;SDS011;66044;53.142;17.962;2023-05-16T07:46:30;5.10;;;1.90;;
77018;SDS011;66044;53.142;17.962;2023-05-16T07:48:56;5.80;;;1.90;;
77018;SDS011;66044;53.142;17.962;2023-05-16T07:51:23;5.50;;;2.00;;
77018;SDS011;66044;53.142;17.962;2023-05-16T07:53:49;6.90;;;1.90;;
77018;SDS011;66044;53.142;17.962;2023-05-16T07:56:16;5.90;;;2.20;;
77018;SDS011;66044;53.142;17.962;2023-05-16T07:58:43;7.40;;;2.50;;
77018;SDS011;66044;53.142;17.962;2023-05-16T08:01:09;9.30;;;2.80;;
77018;SDS011;66044;53.142;17.962;2023-05-16T08:03:36;6.00;;;2.10;;
77018;SDS011;66044;53.142;17.962;2023-05-16T08:06:03;6.40;;;2.30;;
77018;SDS011;66044;53.142;17.962;2023-05-16T08:08:29;5.40;;;2.10;;
77018;SDS011;66044;53.142;17.962;2023-05-16T08:10:56;5.20;;;2.10;;
77018;SDS011;66044;53.142;17.962;2023-05-16T08:13:22;5.00;;;1.90;;
77018;SDS011;66044;53.142;17.962;2023-05-16T08:15:49;5.80;;;2.30;;
77018;SDS011;66044;53.142;17.962;2023-05-16T08:18:15;7.00;;;2.40;;
77018;SDS011;66044;53.142;17.962;2023-05-16T08:20:42;5.60;;;2.00;;
77018;SDS011;66044;53.142;17.962;2023-05-16T08:23:08;5.90;;;2.20;;
77018;SDS011;66044;53.142;17.962;2023-05-16T08:25:35;5.70;;;2.20;;
77018;SDS011;66044;53.142;17.962;2023-05-16T08:28:01;4.20;;;1.60;;
77018;SDS011;66044;53.142;17.962;2023-05-16T08:30:28;5.50;;;2.20;;
77018;SDS011;66044;53.142;17.962;2023-05-16T08:32:54;5.50;;;2.20;;
77018;SDS011;66044;53.142;17.962;2023-05-16T08:35:21;6.30;;;2.20;;
77018;SDS011;66044;53.142;17.962;2023-05-16T08:37:47;5.40;;;2.30;;
77018;SDS011;66044;53.142;17.962;2023-05-16T08:40:14;5.90;;;2.40;;
77018;SDS011;66044;53.142;17.962;2023-05-16T08:42:41;7.10;;;2.50;;
77018;SDS011;66044;53.142;17.962;2023-05-16T08:45:08;5.40;;;2.30;;
77018;SDS011;66044;53.142;17.962;2023-05-16T08:47:34;6.60;;;2.40;;
77018;SDS011;66044;53.142;17.962;2023-05-16T08:50:06;5.90;;;2.30;;
77018;SDS011;66044;53.142;17.962;2023-05-16T08:52:34;5.90;;;2.40;;
77018;SDS011;66044;53.142;17.962;2023-05-16T08:55:03;5.40;;;2.10;;
77018;SDS011;66044;53.142;17.962;2023-05-16T08:57:30;6.70;;;2.30;;
77018;SDS011;66044;53.142;17.962;2023-05-16T08:59:59;5.00;;;1.90;;
77018;SDS011;66044;53.142;17.962;2023-05-16T09:02:26;5.30;;;1.80;;
77018;SDS011;66044;53.142;17.962;2023-05-16T09:04:53;6.40;;;1.90;;
77018;SDS011;66044;53.142;17.962;2023-05-16T09:07:22;5.50;;;1.60;;
77018;SDS011;66044;53.142;17.962;2023-05-16T09:09:49;5.40;;;1.70;;
77018;SDS011;66044;53.142;17.962;2023-05-16T09:12:16;5.60;;;1.70;;
77018;SDS011;66044;53.142;17.962;2023-05-16T09:14:42;3.90;;;1.50;;
77018;SDS011;66044;53.142;17.962;2023-05-16T09:17:10;4.80;;;1.80;;
77018;SDS011;66044;53.142;17.962;2023-05-16T09:19:41;5.30;;;1.70;;
77018;SDS011;66044;53.142;17.962;2023-05-16T09:22:08;5.80;;;1.60;;
77018;SDS011;66044;53.142;17.962;2023-05-16T09:24:37;4.90;;;1.50;;
77018;SDS011;66044;53.142;17.962;2023-05-16T09:27:08;7.20;;;1.70;;
77018;SDS011;66044;53.142;17.962;2023-05-16T09:29:35;4.90;;;1.90;;
77018;SDS011;66044;53.142;17.962;2023-05-16T09:32:35;5.30;;;1.80;;
77018;SDS011;66044;53.142;17.962;2023-05-16T09:34:56;5.30;;;1.60;;
77018;SDS011;66044;53.142;17.962;2023-05-16T09:37:23;4.90;;;1.60;;
77018;SDS011;66044;53.142;17.962;2023-05-16T09:39:51;4.70;;;1.70;;
77018;SDS011;66044;53.142;17.962;2023-05-16T09:42:20;5.50;;;1.90;;
77018;SDS011;66044;53.142;17.962;2023-05-16T09:44:48;7.00;;;1.80;;
77018;SDS011;66044;53.142;17.962;2023-05-16T09:47:19;5.00;;;1.80;;
77018;SDS011;66044;53.142;17.962;2023-05-16T09:49:50;4.70;;;1.40;;
77018;SDS011;66044;53.142;17.962;2023-05-16T09:52:18;5.90;;;1.70;;
77018;SDS011;66044;53.142;17.962;2023-05-16T09:54:45;5.10;;;1.70;;
77018;SDS011;66044;53.142;17.962;2023-05-16T09:57:18;5.20;;;1.70;;
77018;SDS011;66044;53.142;17.962;2023-05-16T09:59:45;6.30;;;1.50;;
77018;SDS011;66044;53.142;17.962;2023-05-16T10:02:11;5.40;;;1.80;;
77018;SDS011;66044;53.142;17.962;2023-05-16T10:04:38;5.00;;;1.50;;
77018;SDS011;66044;53.142;17.962;2023-05-16T10:07:05;5.20;;;1.70;;
77018;SDS011;66044;53.142;17.962;2023-05-16T10:09:35;5.80;;;1.70;;
77018;SDS011;66044;53.142;17.962;2023-05-16T10:12:03;7.30;;;1.90;;
77018;SDS011;66044;53.142;17.962;2023-05-16T10:14:34;5.10;;;1.70;;
77018;SDS011;66044;53.142;17.962;2023-05-16T10:17:02;6.10;;;1.80;;
77018;SDS011;66044;53.142;17.962;2023-05-16T10:19:31;4.90;;;1.60;;
77018;SDS011;66044;53.142;17.962;2023-05-16T10:22:03;4.10;;;1.30;;
77018;SDS011;66044;53.142;17.962;2023-05-16T10:27:10;4.90;;;1.60;;
77018;SDS011;66044;53.142;17.962;2023-05-16T10:29:37;4.70;;;1.40;;
77018;SDS011;66044;53.142;17.962;2023-05-16T10:32:05;5.30;;;1.70;;
77018;SDS011;66044;53.142;17.962;2023-05-16T10:34:33;5.50;;;1.70;;
77018;SDS011;66044;53.142;17.962;2023-05-16T10:37:00;4.30;;;1.60;;
77018;SDS011;66044;53.142;17.962;2023-05-16T10:39:27;5.60;;;1.90;;
77018;SDS011;66044;53.142;17.962;2023-05-16T10:41:54;6.10;;;1.80;;
77018;SDS011;66044;53.142;17.962;2023-05-16T10:44:21;4.90;;;1.80;;
77018;SDS011;66044;53.142;17.962;2023-05-16T10:46:48;5.10;;;1.80;;
77018;SDS011;66044;53.142;17.962;2023-05-16T10:49:21;5.80;;;2.00;;
77018;SDS011;66044;53.142;17.962;2023-05-16T10:52:01;5.60;;;1.80;;
77018;SDS011;66044;53.142;17.962;2023-05-16T10:54:37;5.70;;;1.80;;
77018;SDS011;66044;53.142;17.962;2023-05-16T10:57:05;6.30;;;1.70;;
77018;SDS011;66044;53.142;17.962;2023-05-16T10:59:41;4.90;;;1.90;;
77018;SDS011;66044;53.142;17.962;2023-05-16T11:02:21;5.30;;;2.00;;
77018;SDS011;66044;53.142;17.962;2023-05-16T11:04:53;5.30;;;1.90;;
77018;SDS011;66044;53.142;17.962;2023-05-16T11:07:25;6.40;;;2.20;;
77018;SDS011;66044;53.142;17.962;2023-05-16T11:10:06;5.00;;;1.80;;
77018;SDS011;66044;53.142;17.962;2023-05-16T11:12:35;5.60;;;1.90;;
77018;SDS011;66044;53.142;17.962;2023-05-16T11:15:24;7.10;;;2.00;;
77018;SDS011;66044;53.142;17.962;2023-05-16T11:18:02;6.00;;;2.00;;
77018;SDS011;66044;53.142;17.962;2023-05-16T11:20:39;6.30;;;1.90;;
77018;SDS011;66044;53.142;17.962;2023-05-16T11:25:45;5.60;;;1.80;;
77018;SDS011;66044;53.142;17.962;2023-05-16T11:28:13;5.60;;;1.90;;
77018;SDS011;66044;53.142;17.962;2023-05-16T11:30:47;6.50;;;2.10;;
77018;SDS011;66044;53.142;17.962;2023-05-16T11:33:15;6.70;;;2.10;;
77018;SDS011;66044;53.142;17.962;2023-05-16T11:35:42;6.20;;;2.10;;
77018;SDS011;66044;53.142;17.962;2023-05-16T11:38:13;6.40;;;2.50;;
77018;SDS011;66044;53.142;17.962;2023-05-16T11:40:42;7.60;;;2.30;;
77018;SDS011;66044;53.142;17.962;2023-05-16T11:43:09;4.90;;;1.70;;
77018;SDS011;66044;53.142;17.962;2023-05-16T11:45:36;5.00;;;2.00;;
77018;SDS011;66044;53.142;17.962;2023-05-16T11:48:03;5.10;;;2.20;;
77018;SDS011;66044;53.142;17.962;2023-05-16T11:50:30;6.60;;;2.50;;
77018;SDS011;66044;53.142;17.962;2023-05-16T11:52:56;6.00;;;2.00;;
77018;SDS011;66044;53.142;17.962;2023-05-16T11:55:27;5.50;;;2.10;;
77018;SDS011;66044;53.142;17.962;2023-05-16T11:57:56;5.00;;;1.80;;
77018;SDS011;66044;53.142;17.962;2023-05-16T12:00:24;6.20;;;2.40;;
77018;SDS011;66044;53.142;17.962;2023-05-16T12:02:53;5.60;;;2.40;;
77018;SDS011;66044;53.142;17.962;2023-05-16T12:05:26;5.10;;;1.80;;
77018;SDS011;66044;53.142;17.962;2023-05-16T12:07:53;7.30;;;2.30;;
77018;SDS011;66044;53.142;17.962;2023-05-16T12:10:20;7.20;;;2.30;;
77018;SDS011;66044;53.142;17.962;2023-05-16T12:12:48;7.90;;;2.00;;
77018;SDS011;66044;53.142;17.962;2023-05-16T12:15:17;5.00;;;2.10;;
77018;SDS011;66044;53.142;17.962;2023-05-16T12:17:44;6.00;;;2.20;;
77018;SDS011;66044;53.142;17.962;2023-05-16T12:20:12;6.40;;;2.20;;
77018;SDS011;66044;53.142;17.962;2023-05-16T12:22:42;5.80;;;2.20;;
77018;SDS011;66044;53.142;17.962;2023-05-16T12:25:20;5.40;;;2.30;;
77018;SDS011;66044;53.142;17.962;2023-05-16T12:27:46;8.30;;;2.40;;
77018;SDS011;66044;53.142;17.962;2023-05-16T12:30:15;5.80;;;2.20;;
77018;SDS011;66044;53.142;17.962;2023-05-16T12:32:42;5.70;;;2.30;;
77018;SDS011;66044;53.142;17.962;2023-05-16T12:35:09;7.20;;;2.60;;
77018;SDS011;66044;53.142;17.962;2023-05-16T12:37:38;5.50;;;2.40;;
77018;SDS011;66044;53.142;17.962;2023-05-16T12:40:05;5.90;;;2.30;;
77018;SDS011;66044;53.142;17.962;2023-05-16T12:42:34;7.10;;;2.60;;
77018;SDS011;66044;53.142;17.962;2023-05-16T12:45:01;6.60;;;2.30;;
77018;SDS011;66044;53.142;17.962;2023-05-16T12:47:34;6.70;;;2.50;;
77018;SDS011;66044;53.142;17.962;2023-05-16T12:50:01;7.60;;;2.70;;
77018;SDS011;66044;53.142;17.962;2023-05-16T12:52:29;5.60;;;2.00;;
77018;SDS011;66044;53.142;17.962;2023-05-16T12:54:56;5.40;;;2.30;;
77018;SDS011;66044;53.142;17.962;2023-05-16T12:57:23;5.70;;;2.60;;
77018;SDS011;66044;53.142;17.962;2023-05-16T12:59:49;7.30;;;2.90;;
77018;SDS011;66044;53.142;17.962;2023-05-16T13:02:16;6.50;;;3.70;;
77018;SDS011;66044;53.142;17.962;2023-05-16T13:04:44;10.40;;;4.50;;
77018;SDS011;66044;53.142;17.962;2023-05-16T13:07:10;8.00;;;4.30;;
77018;SDS011;66044;53.142;17.962;2023-05-16T13:09:37;8.10;;;4.30;;
77018;SDS011;66044;53.142;17.962;2023-05-16T13:12:03;8.30;;;4.90;;
77018;SDS011;66044;53.142;17.962;2023-05-16T13:14:30;8.00;;;4.20;;
77018;SDS011;66044;53.142;17.962;2023-05-16T13:16:57;9.10;;;4.20;;
77018;SDS011;66044;53.142;17.962;2023-05-16T13:19:23;7.90;;;3.80;;
77018;SDS011;66044;53.142;17.962;2023-05-16T13:21:50;6.80;;;3.70;;
77018;SDS011;66044;53.142;17.962;2023-05-16T13:24:16;7.60;;;4.10;;
77018;SDS011;66044;53.142;17.962;2023-05-16T13:26:43;11.20;;;3.90;;
77018;SDS011;66044;53.142;17.962;2023-05-16T13:29:10;9.00;;;4.00;;
77018;SDS011;66044;53.142;17.962;2023-05-16T13:31:37;8.70;;;3.60;;
77018;SDS011;66044;53.142;17.962;2023-05-16T13:34:03;7.20;;;3.90;;
77018;SDS011;66044;53.142;17.962;2023-05-16T13:36:29;8.70;;;5.00;;
77018;SDS011;66044;53.142;17.962;2023-05-16T13:38:56;8.40;;;5.10;;
77018;SDS011;66044;53.142;17.962;2023-05-16T13:41:22;9.60;;;4.30;;
77018;SDS011;66044;53.142;17.962;2023-05-16T13:43:49;7.60;;;4.00;;
77018;SDS011;66044;53.142;17.962;2023-05-16T13:46:15;9.60;;;4.10;;
77018;SDS011;66044;53.142;17.962;2023-05-16T13:48:42;7.50;;;4.30;;
77018;SDS011;66044;53.142;17.962;2023-05-16T13:51:09;8.40;;;4.30;;
77018;SDS011;66044;53.142;17.962;2023-05-16T13:53:36;10.90;;;4.60;;
77018;SDS011;66044;53.142;17.962;2023-05-16T13:56:04;8.80;;;4.30;;
77018;SDS011;66044;53.142;17.962;2023-05-16T13:58:31;9.50;;;4.30;;
77018;SDS011;66044;53.142;17.962;2023-05-16T14:00:57;7.00;;;3.60;;
77018;SDS011;66044;53.142;17.962;2023-05-16T14:03:23;8.60;;;3.80;;
77018;SDS011;66044;53.142;17.962;2023-05-16T14:05:50;8.40;;;4.20;;
77018;SDS011;66044;53.142;17.962;2023-05-16T14:08:17;8.50;;;4.40;;
77018;SDS011;66044;53.142;17.962;2023-05-16T14:10:43;8.00;;;4.20;;
77018;SDS011;66044;53.142;17.962;2023-05-16T14:13:10;9.40;;;4.40;;
77018;SDS011;66044;53.142;17.962;2023-05-16T14:15:36;7.60;;;3.40;;
77018;SDS011;66044;53.142;17.962;2023-05-16T14:18:03;8.70;;;4.30;;
77018;SDS011;66044;53.142;17.962;2023-05-16T14:20:30;9.70;;;4.30;;
77018;SDS011;66044;53.142;17.962;2023-05-16T14:22:56;7.30;;;4.30;;
77018;SDS011;66044;53.142;17.962;2023-05-16T14:25:23;8.50;;;5.00;;
77018;SDS011;66044;53.142;17.962;2023-05-16T14:27:49;8.50;;;4.50;;
77018;SDS011;66044;53.142;17.962;2023-05-16T14:30:16;7.80;;;3.70;;
77018;SDS011;66044;53.142;17.962;2023-05-16T14:32:42;8.40;;;4.30;;
77018;SDS011;66044;53.142;17.962;2023-05-16T14:35:09;7.40;;;3.30;;
77018;SDS011;66044;53.142;17.962;2023-05-16T14:37:35;7.90;;;4.20;;
77018;SDS011;66044;53.142;17.962;2023-05-16T14:40:02;9.10;;;3.90;;
77018;SDS011;66044;53.142;17.962;2023-05-16T14:42:30;8.00;;;4.20;;
77018;SDS011;66044;53.142;17.962;2023-05-16T14:44:56;8.10;;;4.50;;
77018;SDS011;66044;53.142;17.962;2023-05-16T14:47:23;8.90;;;5.20;;